Time;durP1;ratioP1;P1;durP2;ratioP2;P2;SDS_P1;SDS_P2;PMS_P1;PMS_P2;Temp;Humidity;BMP_temperature;BMP_pressure;BME280_temperature;BME280_humidity;BME280_pressure;Samples;Min_cycle;Max_cycle;Signal;HPM_P1;HPM_P2
2021/08/11 00:00:22;;;;;;;7.22;4.68;;;19.10;99.90;;;;;;4190880;28;20040;-60
2021/08/11 00:02:23;;;;;;;8.07;3.95;;;19.00;99.90;;;;;;4188301;28;20036;-61
2021/08/11 00:04:24;;;;;;;5.15;3.67;;;19.00;99.90;;;;;;4190093;28;20086;-61
2021/08/11 00:06:25;;;;;;;7.60;4.28;;;19.00;99.90;;;;;;4190699;28;20478;-61
2021/08/11 00:08:26;;;;;;;5.65;3.42;;;19.00;99.90;;;;;;4189806;28;20097;-61
2021/08/11 00:10:27;;;;;;;4.75;4.25;;;18.90;99.90;;;;;;4190028;28;20092;-62
2021/08/11 00:12:29;;;;;;;4.78;3.50;;;18.90;99.90;;;;;;4189806;28;20034;-62
2021/08/11 00:14:30;;;;;;;5.13;3.88;;;18.90;99.90;;;;;;4190117;28;20045;-61
2021/08/11 00:16:31;;;;;;;5.50;3.65;;;18.80;99.90;;;;;;4189962;28;20041;-61
2021/08/11 00:18:32;;;;;;;4.80;3.80;;;18.80;99.90;;;;;;4190552;28;20121;-61
2021/08/11 00:20:35;;;;;;;4.60;3.58;;;18.80;99.90;;;;;;4188124;28;20045;-62
2021/08/11 00:22:36;;;;;;;4.65;3.47;;;18.80;99.90;;;;;;4190935;28;20049;-61
2021/08/11 00:24:37;;;;;;;4.15;3.67;;;18.80;99.90;;;;;;4189564;28;20101;-61
2021/08/11 00:26:38;;;;;;;6.70;3.72;;;18.80;99.90;;;;;;4190701;28;20033;-62
2021/08/11 00:28:40;;;;;;;4.07;3.13;;;18.70;99.90;;;;;;4189447;28;20087;-61
2021/08/11 00:30:41;;;;;;;4.60;3.25;;;18.70;99.90;;;;;;4190225;28;20118;-62
2021/08/11 00:32:42;;;;;;;4.97;4.03;;;18.70;99.90;;;;;;4189459;28;20036;-60
2021/08/11 00:34:43;;;;;;;3.95;3.55;;;18.70;99.90;;;;;;4190160;28;20029;-61
2021/08/11 00:36:44;;;;;;;4.72;4.15;;;18.70;99.90;;;;;;4189792;28;20041;-61
2021/08/11 00:38:45;;;;;;;4.57;4.05;;;18.70;99.90;;;;;;4189549;28;20041;-61
2021/08/11 00:40:46;;;;;;;4.57;3.55;;;18.70;99.90;;;;;;4190121;28;20037;-61
2021/08/11 00:42:47;;;;;;;4.80;3.53;;;18.60;99.90;;;;;;4189350;28;20044;-62
2021/08/11 00:44:48;;;;;;;5.20;4.00;;;18.60;99.90;;;;;;4190338;28;20582;-61
2021/08/11 00:46:50;;;;;;;6.38;3.83;;;18.60;99.90;;;;;;4188083;28;20032;-60
2021/08/11 00:48:52;;;;;;;5.75;3.85;;;18.60;99.90;;;;;;4190793;28;20029;-60
2021/08/11 00:50:53;;;;;;;4.80;3.78;;;18.60;99.90;;;;;;4189222;28;20514;-60
2021/08/11 00:52:55;;;;;;;4.20;3.42;;;18.60;99.90;;;;;;4190344;28;20090;-60
2021/08/11 00:54:58;;;;;;;4.50;4.10;;;18.50;99.90;;;;;;4188214;28;20480;-60
2021/08/11 00:56:59;;;;;;;8.07;3.90;;;18.50;99.90;;;;;;4190341;28;20090;-60
2021/08/11 00:59:03;;;;;;;4.82;3.30;;;18.40;99.90;;;;;;4189168;28;20037;-60
2021/08/11 01:01:05;;;;;;;5.72;4.18;;;18.40;99.90;;;;;;4190494;28;20975;-59
2021/08/11 01:03:12;;;;;;;5.55;3.58;;;18.40;99.90;;;;;;4189144;28;20073;-60
2021/08/11 01:05:14;;;;;;;5.45;3.50;;;18.40;99.90;;;;;;4189656;28;20550;-60
2021/08/11 01:07:16;;;;;;;4.60;3.70;;;18.40;99.90;;;;;;4189385;28;20024;-61
2021/08/11 01:09:18;;;;;;;6.60;4.00;;;18.40;99.90;;;;;;4189687;28;20161;-61
2021/08/11 01:11:21;;;;;;;6.82;3.88;;;18.40;99.90;;;;;;4188904;28;20385;-60
2021/08/11 01:13:24;;;;;;;7.03;4.05;;;18.40;99.90;;;;;;4189102;28;20041;-61
2021/08/11 01:15:25;;;;;;;7.88;3.25;;;18.40;99.90;;;;;;4189895;28;20036;-60
2021/08/11 01:17:28;;;;;;;5.40;3.50;;;18.30;99.90;;;;;;4188943;28;20036;-61
2021/08/11 01:19:30;;;;;;;4.55;3.15;;;18.30;99.90;;;;;;4189963;28;20442;-62
2021/08/11 01:21:35;;;;;;;4.53;3.83;;;18.30;99.90;;;;;;4188433;28;20052;-61
2021/08/11 01:23:45;;;;;;;7.68;3.67;;;18.30;99.90;;;;;;4190414;28;20090;-60
2021/08/11 01:25:53;;;;;;;5.07;3.30;;;18.30;99.90;;;;;;4188611;28;20048;-61
2021/08/11 01:28:15;;;;;;;4.95;3.50;;;18.30;99.90;;;;;;4190225;28;20086;-61
2021/08/11 01:30:25;;;;;;;6.10;4.07;;;18.20;99.90;;;;;;4189284;28;20727;-61
2021/08/11 01:32:58;;;;;;;4.65;3.33;;;18.20;99.90;;;;;;4190225;28;20091;-61
2021/08/11 01:35:01;;;;;;;4.90;3.50;;;18.20;99.90;;;;;;4186398;28;20110;-61
2021/08/11 01:37:07;;;;;;;5.20;3.35;;;18.20;99.90;;;;;;4189160;28;20041;-60
2021/08/11 01:39:30;;;;;;;5.45;4.18;;;18.20;99.90;;;;;;4188836;28;20041;-61
2021/08/11 01:41:37;;;;;;;5.15;3.67;;;18.10;99.90;;;;;;4189732;28;20032;-61
2021/08/11 01:43:46;;;;;;;5.22;3.42;;;18.10;99.90;;;;;;4188273;28;20025;-61
2021/08/11 01:45:48;;;;;;;4.25;3.10;;;18.10;99.90;;;;;;4191093;28;20028;-61
2021/08/11 01:48:07;;;;;;;4.20;3.10;;;18.10;99.90;;;;;;4191842;28;20017;-61
2021/08/11 01:50:12;;;;;;;7.03;4.03;;;18.10;99.90;;;;;;4192858;28;20036;-61
2021/08/11 01:52:15;;;;;;;6.00;3.47;;;18.10;99.90;;;;;;4191460;28;20111;-60
2021/08/11 01:54:16;;;;;;;5.32;3.67;;;18.10;99.90;;;;;;4192092;28;20078;-60
2021/08/11 01:56:18;;;;;;;5.32;3.63;;;18.10;99.90;;;;;;4191756;28;20042;-61
2021/08/11 01:58:29;;;;;;;4.68;3.70;;;18.00;99.90;;;;;;4190716;28;20036;-60
2021/08/11 02:00:31;;;;;;;7.10;3.50;;;18.10;99.90;;;;;;4191590;28;20028;-61
2021/08/11 02:02:36;;;;;;;5.43;3.72;;;18.00;99.90;;;;;;4192430;28;20094;-61
2021/08/11 02:04:38;;;;;;;5.93;3.75;;;18.00;99.90;;;;;;4191405;28;20070;-61
2021/08/11 02:06:40;;;;;;;5.93;3.20;;;18.10;99.90;;;;;;4192633;28;20090;-60
2021/08/11 02:08:43;;;;;;;5.88;3.53;;;18.00;99.90;;;;;;4191173;28;20103;-61
2021/08/11 02:10:45;;;;;;;8.50;3.60;;;18.00;99.90;;;;;;4191823;28;20036;-62
2021/08/11 02:12:46;;;;;;;3.85;3.45;;;18.00;99.90;;;;;;4190975;28;20044;-61
2021/08/11 02:14:48;;;;;;;5.88;3.70;;;18.00;99.90;;;;;;4192874;28;20032;-62
2021/08/11 02:16:49;;;;;;;5.35;3.47;;;18.00;99.90;;;;;;4191157;28;20029;-62
2021/08/11 02:18:50;;;;;;;5.28;3.28;;;18.00;99.90;;;;;;4191733;28;20056;-61
2021/08/11 02:20:51;;;;;;;6.38;3.05;;;18.00;99.90;;;;;;4191366;28;20082;-61
2021/08/11 02:22:52;;;;;;;4.75;3.42;;;17.90;99.90;;;;;;4190950;28;20048;-61
2021/08/11 02:24:54;;;;;;;5.88;3.90;;;17.90;99.90;;;;;;4191869;28;20562;-61
2021/08/11 02:27:10;;;;;;;5.60;3.55;;;17.90;99.90;;;;;;4191010;28;20502;-60
2021/08/11 02:29:58;;;;;;;7.45;3.55;;;17.90;99.90;;;;;;4191637;28;20062;-61
2021/08/11 02:32:17;;;;;;;7.20;3.97;;;17.80;99.90;;;;;;4192087;28;20074;-61
2021/08/11 02:34:27;;;;;;;5.60;3.80;;;17.90;99.90;;;;;;4190254;28;20570;-61
2021/08/11 02:36:34;;;;;;;4.57;3.45;;;17.90;99.90;;;;;;4191742;28;20052;-62
2021/08/11 02:38:38;;;;;;;5.70;3.72;;;17.80;99.90;;;;;;4191056;28;20036;-60
2021/08/11 02:40:52;;;;;;;4.38;3.40;;;17.90;99.90;;;;;;4192013;28;20012;-61
2021/08/11 02:43:05;;;;;;;6.72;3.50;;;17.80;99.90;;;;;;4189021;28;20040;-61
2021/08/11 02:45:09;;;;;;;5.88;3.70;;;17.80;99.90;;;;;;4192262;28;20033;-61
2021/08/11 02:47:11;;;;;;;5.47;3.58;;;17.80;99.90;;;;;;4190217;28;20028;-61
2021/08/11 02:49:20;;;;;;;6.45;3.10;;;17.80;99.90;;;;;;4191624;28;20024;-61
2021/08/11 02:51:25;;;;;;;5.30;3.45;;;17.80;99.90;;;;;;4190547;28;20028;-61
2021/08/11 02:53:28;;;;;;;7.45;3.90;;;17.70;99.90;;;;;;4191283;28;20110;-61
2021/08/11 02:55:30;;;;;;;6.82;3.50;;;17.70;99.90;;;;;;4190514;28;20036;-61
2021/08/11 02:57:33;;;;;;;5.45;3.85;;;17.70;99.90;;;;;;4190707;28;20377;-61
2021/08/11 02:59:36;;;;;;;7.18;4.75;;;17.70;99.90;;;;;;4191526;28;20110;-62
2021/08/11 03:01:37;;;;;;;17.08;10.75;;;17.70;99.90;;;;;;4190338;28;20032;-62
2021/08/11 03:03:40;;;;;;;8.18;5.65;;;17.70;99.90;;;;;;4191238;28;20025;-61
2021/08/11 03:05:41;;;;;;;5.97;3.80;;;17.70;99.90;;;;;;4189002;28;20040;-61
2021/08/11 03:07:43;;;;;;;4.70;3.55;;;17.70;99.90;;;;;;4191843;28;20033;-61
2021/08/11 03:09:45;;;;;;;4.85;3.50;;;17.70;99.90;;;;;;4190207;28;20072;-62
2021/08/11 03:11:47;;;;;;;4.68;3.22;;;17.70;99.90;;;;;;4191003;28;20048;-61
2021/08/11 03:13:49;;;;;;;5.53;3.78;;;17.70;99.90;;;;;;4190110;28;20659;-61
2021/08/11 03:15:51;;;;;;;6.18;3.33;;;17.70;99.90;;;;;;4191783;28;20086;-60
2021/08/11 03:17:53;;;;;;;6.93;3.50;;;17.70;99.90;;;;;;4190296;28;20032;-61
2021/08/11 03:19:54;;;;;;;7.82;3.90;;;17.80;99.90;;;;;;4191427;28;20036;-61
2021/08/11 03:21:55;;;;;;;6.43;3.65;;;17.80;99.90;;;;;;4189656;28;20082;-61
2021/08/11 03:23:56;;;;;;;5.53;3.17;;;17.80;99.90;;;;;;4191418;28;20036;-61
2021/08/11 03:25:58;;;;;;;4.80;3.05;;;17.80;99.90;;;;;;4190242;28;20082;-61
2021/08/11 03:27:59;;;;;;;3.78;3.38;;;17.90;99.90;;;;;;4190666;28;20044;-62
2021/08/11 03:30:00;;;;;;;4.40;3.25;;;17.90;99.90;;;;;;4190509;28;20110;-60
2021/08/11 03:32:01;;;;;;;5.95;3.67;;;18.10;99.90;;;;;;4173356;28;20079;-61
2021/08/11 03:34:02;;;;;;;6.85;3.17;;;18.20;99.90;;;;;;4174199;28;20546;-62
2021/08/11 03:36:04;;;;;;;3.80;3.38;;;18.40;99.90;;;;;;4173525;28;20029;-62
2021/08/11 03:38:05;;;;;;;5.10;3.42;;;18.50;99.90;;;;;;4174400;28;20040;-60
2021/08/11 03:40:06;;;;;;;4.93;3.00;;;18.70;99.90;;;;;;4173467;28;20045;-61
2021/08/11 03:42:08;;;;;;;5.78;3.28;;;18.90;99.90;;;;;;4174168;28;20123;-61
2021/08/11 03:44:09;;;;;;;8.50;3.17;;;19.10;99.90;;;;;;4173090;28;20029;-61
2021/08/11 03:46:10;;;;;;;3.80;3.15;;;19.30;99.90;;;;;;4174310;28;20564;-61
2021/08/11 03:48:11;;;;;;;8.10;3.40;;;19.50;99.90;;;;;;4171860;28;20571;-61
2021/08/11 03:50:17;;;;;;;7.15;3.47;;;19.80;99.90;;;;;;4185497;28;20076;-61
2021/08/11 03:52:19;;;;;;;6.72;2.70;;;20.00;99.90;;;;;;4189762;28;20514;-62
2021/08/11 03:54:20;;;;;;;4.53;2.83;;;20.30;99.90;;;;;;4190277;28;20048;-61
2021/08/11 03:56:21;;;;;;;7.05;2.92;;;20.60;99.90;;;;;;4189667;28;20840;-61
2021/08/11 03:58:22;;;;;;;5.65;3.35;;;20.90;99.90;;;;;;4189988;28;20102;-61
2021/08/11 04:00:23;;;;;;;4.43;2.85;;;21.10;99.90;;;;;;4189065;28;20053;-62
2021/08/11 04:02:24;;;;;;;5.30;2.70;;;21.30;99.90;;;;;;4190417;28;20082;-61
2021/08/11 04:04:25;;;;;;;3.78;2.53;;;21.70;99.90;;;;;;4189746;28;20066;-62
2021/08/11 04:06:26;;;;;;;6.38;2.90;;;22.00;99.90;;;;;;4189780;28;20489;-61
2021/08/11 04:08:27;;;;;;;3.92;2.83;;;22.30;99.90;;;;;;4187333;28;20086;-62
2021/08/11 04:10:28;;;;;;;4.57;2.85;;;22.50;99.90;;;;;;4189380;28;20130;-60
2021/08/11 04:12:30;;;;;;;6.35;2.85;;;22.90;99.90;;;;;;4190375;28;20907;-61
2021/08/11 04:14:31;;;;;;;6.72;2.97;;;23.30;99.90;;;;;;4189202;28;20178;-62
2021/08/11 04:16:32;;;;;;;6.88;2.80;;;23.80;99.90;;;;;;4190169;28;20423;-61
2021/08/11 04:18:33;;;;;;;11.48;3.50;;;24.20;99.90;;;;;;4189537;28;20462;-62
2021/08/11 04:20:36;;;;;;;8.30;3.10;;;24.50;99.30;;;;;;4190119;28;20040;-62
2021/08/11 04:22:37;;;;;;;5.88;2.88;;;24.80;98.70;;;;;;4189151;28;20073;-62
2021/08/11 04:24:38;;;;;;;4.65;2.67;;;25.00;98.20;;;;;;4190205;28;20028;-61
2021/08/11 04:26:39;;;;;;;6.43;2.80;;;25.30;97.70;;;;;;4189075;28;20037;-61
2021/08/11 04:28:41;;;;;;;5.40;3.30;;;25.50;97.10;;;;;;4190397;28;20549;-61
2021/08/11 04:30:42;;;;;;;6.10;2.50;;;25.90;96.60;;;;;;4188037;28;20106;-60
2021/08/11 04:32:43;;;;;;;3.95;2.85;;;25.90;96.00;;;;;;4189656;28;20033;-62
2021/08/11 04:34:45;;;;;;;4.50;2.85;;;25.80;95.80;;;;;;4189653;28;20073;-60
2021/08/11 04:36:46;;;;;;;4.63;2.50;;;25.70;95.50;;;;;;4180543;28;20065;-62
2021/08/11 04:38:48;;;;;;;5.57;2.65;;;25.50;95.20;;;;;;4177902;28;20213;-60
2021/08/11 04:40:49;;;;;;;7.35;2.90;;;25.50;95.20;;;;;;4187067;28;20577;-60
2021/08/11 04:42:50;;;;;;;6.25;3.08;;;25.50;94.90;;;;;;4188485;28;20074;-61
2021/08/11 04:44:51;;;;;;;8.77;2.40;;;25.60;94.80;;;;;;4187187;28;20044;-60
2021/08/11 04:46:52;;;;;;;4.22;2.45;;;26.00;94.40;;;;;;4189197;28;20098;-61
2021/08/11 04:48:53;;;;;;;4.82;2.88;;;26.60;93.80;;;;;;4187773;28;20016;-65
2021/08/11 04:50:54;;;;;;;9.00;3.22;;;27.00;93.20;;;;;;4184925;28;20477;-61
2021/08/11 04:52:55;;;;;;;4.68;2.60;;;27.20;92.80;;;;;;4171017;28;20041;-62
2021/08/11 04:54:57;;;;;;;4.15;2.78;;;27.60;92.30;;;;;;4172263;28;20044;-61
2021/08/11 04:56:58;;;;;;;3.55;2.22;;;28.10;91.50;;;;;;4172160;28;20037;-60
2021/08/11 04:58:59;;;;;;;6.65;2.33;;;28.30;90.80;;;;;;4173329;28;20436;-62
2021/08/11 05:01:00;;;;;;;6.82;2.90;;;28.50;90.20;;;;;;4172476;28;20029;-61
2021/08/11 05:03:02;;;;;;;8.93;2.50;;;28.70;89.60;;;;;;4172632;28;20041;-62
2021/08/11 05:05:04;;;;;;;5.18;2.35;;;29.10;89.10;;;;;;4172431;28;20571;-62
2021/08/11 05:07:08;;;;;;;9.68;2.45;;;29.30;87.80;;;;;;4172747;28;20054;-62
2021/08/11 05:09:10;;;;;;;5.50;2.22;;;29.50;86.70;;;;;;4172968;28;20127;-61
2021/08/11 05:11:13;;;;;;;5.18;2.45;;;29.60;86.00;;;;;;4172355;28;20861;-62
2021/08/11 05:13:14;;;;;;;5.63;2.53;;;29.50;85.50;;;;;;4173508;28;20904;-62
2021/08/11 05:15:16;;;;;;;6.25;2.88;;;29.70;84.80;;;;;;4171887;28;20025;-63
2021/08/11 05:17:21;;;;;;;3.95;2.33;;;29.80;83.90;;;;;;4173742;28;20041;-61
2021/08/11 05:19:22;;;;;;;6.32;2.40;;;29.90;83.50;;;;;;4172237;28;20830;-62
2021/08/11 05:21:24;;;;;;;5.55;2.47;;;30.00;82.70;;;;;;4175711;28;20029;-61
2021/08/11 05:23:27;;;;;;;4.18;2.20;;;30.30;81.90;;;;;;4174816;28;20091;-61
2021/08/11 05:25:28;;;;;;;4.25;2.38;;;30.50;81.10;;;;;;4176731;28;20646;-61
2021/08/11 05:27:29;;;;;;;5.55;2.10;;;30.70;80.30;;;;;;4175295;28;20025;-60
2021/08/11 05:29:32;;;;;;;5.93;2.30;;;30.90;79.50;;;;;;4176813;28;20311;-61
2021/08/11 05:31:34;;;;;;;3.65;2.58;;;30.90;79.20;;;;;;4174689;28;20566;-61
2021/08/11 05:33:35;;;;;;;5.57;2.33;;;31.10;78.50;;;;;;4176348;28;20114;-61
2021/08/11 05:35:36;;;;;;;6.82;2.15;;;31.30;77.60;;;;;;4175026;28;20024;-61
2021/08/11 05:37:38;;;;;;;4.45;2.22;;;31.40;76.80;;;;;;4175156;28;20476;-61
2021/08/11 05:39:40;;;;;;;17.13;3.00;;;31.40;76.20;;;;;;4175552;28;20075;-62
2021/08/11 05:41:41;;;;;;;6.38;2.33;;;31.40;75.80;;;;;;4174845;28;20392;-61
2021/08/11 05:43:43;;;;;;;6.60;2.80;;;31.50;75.50;;;;;;4175767;28;20037;-62
2021/08/11 05:45:44;;;;;;;9.60;2.80;;;31.80;74.90;;;;;;4174713;28;20028;-61
2021/08/11 05:47:45;;;;;;;5.47;2.60;;;32.20;74.10;;;;;;4176027;28;20033;-63
2021/08/11 05:49:47;;;;;;;8.05;2.50;;;32.40;73.40;;;;;;4174539;28;20545;-62
2021/08/11 05:51:48;;;;;;;7.35;2.67;;;32.30;73.30;;;;;;4175214;28;20041;-62
2021/08/11 05:53:49;;;;;;;3.75;2.35;;;32.20;72.80;;;;;;4174550;28;20036;-62
2021/08/11 05:55:51;;;;;;;6.97;2.22;;;32.20;72.40;;;;;;4176005;28;20029;-62
2021/08/11 05:57:52;;;;;;;5.85;2.17;;;32.20;71.90;;;;;;4175084;28;20087;-62
2021/08/11 05:59:53;;;;;;;2.92;2.10;;;32.20;71.90;;;;;;4175122;28;20444;-62
2021/08/11 06:01:55;;;;;;;3.95;2.13;;;32.00;71.40;;;;;;4174658;28;20029;-62
2021/08/11 06:03:57;;;;;;;5.95;2.70;;;31.90;71.70;;;;;;4176085;28;20485;-63
2021/08/11 06:05:58;;;;;;;8.43;2.83;;;31.90;71.50;;;;;;4174607;28;20083;-62
2021/08/11 06:07:59;;;;;;;5.80;2.70;;;31.90;71.30;;;;;;4174699;28;20090;-61
2021/08/11 06:10:00;;;;;;;4.53;2.50;;;32.10;71.30;;;;;;4174871;28;20041;-61
2021/08/11 06:12:01;;;;;;;7.47;2.38;;;32.00;71.00;;;;;;4175019;28;20075;-62
2021/08/11 06:14:02;;;;;;;4.53;2.20;;;31.90;70.90;;;;;;4175066;28;20078;-62
2021/08/11 06:16:04;;;;;;;6.70;2.20;;;32.00;71.00;;;;;;4174172;28;20905;-62
2021/08/11 06:18:05;;;;;;;5.70;2.45;;;32.40;70.70;;;;;;4175857;28;20087;-62
2021/08/11 06:20:07;;;;;;;9.52;2.90;;;32.60;70.00;;;;;;4174483;28;20049;-61
2021/08/11 06:22:09;;;;;;;5.88;2.53;;;32.50;69.60;;;;;;4174916;28;20061;-62
2021/08/11 06:24:10;;;;;;;7.72;2.40;;;32.40;69.60;;;;;;4174143;28;20025;-63
2021/08/11 06:26:11;;;;;;;3.80;2.50;;;32.70;69.40;;;;;;4175309;28;20038;-61
2021/08/11 06:28:12;;;;;;;6.80;2.53;;;32.80;69.30;;;;;;4171978;28;20114;-61
2021/08/11 06:30:14;;;;;;;6.10;2.65;;;32.80;69.00;;;;;;4175787;28;20041;-62
2021/08/11 06:32:15;;;;;;;9.98;2.42;;;33.00;69.00;;;;;;4173457;28;20456;-61
2021/08/11 06:34:17;;;;;;;4.38;2.55;;;33.20;68.60;;;;;;4175455;28;20083;-61
2021/08/11 06:36:20;;;;;;;8.40;3.05;;;33.40;68.30;;;;;;4174864;28;20029;-62
2021/08/11 06:38:21;;;;;;;5.82;2.60;;;33.60;68.10;;;;;;4175142;28;20477;-63
2021/08/11 06:40:22;;;;;;;3.70;2.50;;;33.90;67.60;;;;;;4174579;28;20052;-62
2021/08/11 06:42:23;;;;;;;6.85;2.58;;;34.00;67.30;;;;;;4174793;28;20025;-62
2021/08/11 06:44:24;;;;;;;4.00;2.13;;;33.80;67.10;;;;;;4174336;28;20086;-62
2021/08/11 06:46:25;;;;;;;7.40;2.13;;;33.40;67.50;;;;;;4173832;28;20083;-63
2021/08/11 06:48:26;;;;;;;3.47;2.10;;;33.30;67.80;;;;;;4174701;28;20105;-62
2021/08/11 06:50:27;;;;;;;4.55;2.60;;;33.00;67.50;;;;;;4173941;28;20078;-63
2021/08/11 06:52:33;;;;;;;3.78;2.28;;;32.60;67.80;;;;;;4174748;28;20063;-62
2021/08/11 06:54:34;;;;;;;6.95;2.08;;;32.40;68.50;;;;;;4173477;28;20060;-62
2021/08/11 06:56:35;;;;;;;6.07;2.75;;;32.00;67.90;;;;;;4175274;28;20465;-62
2021/08/11 06:58:36;;;;;;;13.43;2.58;;;32.40;68.30;;;;;;4173947;28;20041;-62
2021/08/11 07:00:37;;;;;;;6.20;2.72;;;32.60;67.70;;;;;;4174168;28;20049;-62
2021/08/11 07:02:38;;;;;;;5.90;2.58;;;32.70;68.00;;;;;;4173709;28;20098;-62
2021/08/11 07:04:40;;;;;;;4.55;2.15;;;32.90;67.20;;;;;;4174895;28;20041;-62
2021/08/11 07:06:41;;;;;;;6.22;2.70;;;32.90;66.90;;;;;;4173489;28;20032;-61
2021/08/11 07:08:42;;;;;;;6.90;2.20;;;32.90;66.90;;;;;;4174677;28;20101;-62
2021/08/11 07:10:45;;;;;;;4.40;2.13;;;32.80;66.70;;;;;;4173583;28;20028;-61
2021/08/11 07:12:46;;;;;;;6.00;2.05;;;32.30;66.90;;;;;;4174280;28;20102;-62
2021/08/11 07:14:48;;;;;;;3.63;1.90;;;32.20;67.10;;;;;;4173764;28;20795;-62
2021/08/11 07:16:49;;;;;;;4.22;2.20;;;32.20;67.20;;;;;;4173428;28;20040;-61
2021/08/11 07:18:50;;;;;;;4.10;2.08;;;32.20;67.00;;;;;;4174067;28;20450;-62
2021/08/11 07:20:51;;;;;;;7.25;2.20;;;32.00;67.20;;;;;;4173212;28;20041;-62
2021/08/11 07:22:55;;;;;;;2.45;2.00;;;31.70;67.40;;;;;;4175047;28;20074;-62
2021/08/11 07:24:56;;;;;;;8.52;2.38;;;31.60;67.70;;;;;;4173235;28;20041;-62
2021/08/11 07:26:57;;;;;;;3.58;2.50;;;31.50;67.80;;;;;;4174233;28;20559;-62
2021/08/11 07:28:58;;;;;;;2.88;2.20;;;31.40;68.00;;;;;;4172936;28;20087;-62
2021/08/11 07:30:59;;;;;;;2.70;1.98;;;31.30;68.00;;;;;;4174401;28;20450;-62
2021/08/11 07:33:02;;;;;;;5.95;2.35;;;31.50;68.00;;;;;;4173008;28;20036;-62
2021/08/11 07:35:04;;;;;;;3.72;2.38;;;31.50;67.70;;;;;;4174372;28;20111;-62
2021/08/11 07:37:05;;;;;;;4.63;2.42;;;31.40;68.20;;;;;;4172796;28;20435;-62
2021/08/11 07:39:06;;;;;;;7.82;2.35;;;31.70;68.20;;;;;;4173801;28;20071;-62
2021/08/11 07:41:08;;;;;;;2.47;1.88;;;32.10;67.70;;;;;;4172674;28;20103;-62
2021/08/11 07:43:09;;;;;;;2.67;1.90;;;32.40;67.00;;;;;;4172951;28;20036;-61
2021/08/11 07:45:12;;;;;;;5.78;2.35;;;32.30;67.20;;;;;;4173310;28;20086;-62
2021/08/11 07:47:13;;;;;;;6.03;2.22;;;32.20;67.40;;;;;;4173098;28;20029;-63
2021/08/11 07:49:14;;;;;;;6.32;2.42;;;32.00;67.40;;;;;;4173310;28;20138;-62
2021/08/11 07:51:15;;;;;;;7.38;2.17;;;31.80;67.60;;;;;;4172609;28;20029;-62
2021/08/11 07:53:16;;;;;;;3.10;1.65;;;31.70;67.70;;;;;;4171944;28;20603;-62
2021/08/11 07:55:18;;;;;;;5.78;2.78;;;31.70;67.70;;;;;;4172774;28;20106;-61
2021/08/11 07:57:19;;;;;;;3.50;2.35;;;31.60;67.60;;;;;;4174033;28;20082;-61
2021/08/11 07:59:20;;;;;;;4.07;2.28;;;31.60;68.00;;;;;;4172860;28;20090;-63
2021/08/11 08:01:21;;;;;;;4.53;2.20;;;31.40;68.80;;;;;;4173443;28;20439;-62
2021/08/11 08:03:22;;;;;;;5.97;2.47;;;31.40;69.20;;;;;;4172508;28;20788;-62
2021/08/11 08:05:23;;;;;;;7.35;2.60;;;31.20;69.20;;;;;;4173896;28;20041;-61
2021/08/11 08:07:24;;;;;;;11.93;2.58;;;30.80;69.80;;;;;;4172611;28;20067;-62
2021/08/11 08:09:25;;;;;;;7.47;2.65;;;30.40;70.20;;;;;;4173447;28;20103;-62
2021/08/11 08:11:26;;;;;;;4.57;2.38;;;30.30;70.50;;;;;;4172730;28;20810;-61
2021/08/11 08:13:28;;;;;;;9.27;2.45;;;30.30;70.50;;;;;;4173145;28;20025;-62
2021/08/11 08:15:30;;;;;;;9.40;2.22;;;30.10;70.70;;;;;;4172714;28;20107;-61
2021/08/11 08:17:31;;;;;;;6.63;1.90;;;30.00;71.00;;;;;;4172877;28;20105;-62
2021/08/11 08:19:33;;;;;;;5.65;2.47;;;30.10;71.00;;;;;;4172975;28;20102;-62
2021/08/11 08:21:34;;;;;;;3.53;2.63;;;30.00;71.20;;;;;;4170577;28;20588;-63
2021/08/11 08:23:35;;;;;;;8.15;2.90;;;30.10;71.20;;;;;;4173253;28;20045;-61
2021/08/11 08:25:36;;;;;;;4.07;2.63;;;29.90;71.70;;;;;;4171899;28;20476;-62
2021/08/11 08:27:38;;;;;;;5.68;2.30;;;29.90;72.00;;;;;;4173799;28;20122;-62
2021/08/11 08:29:39;;;;;;;6.05;2.25;;;29.90;72.10;;;;;;4171613;28;20071;-62
2021/08/11 08:31:41;;;;;;;8.10;2.40;;;30.00;72.30;;;;;;4173366;28;20595;-61
2021/08/11 08:33:42;;;;;;;5.15;2.38;;;30.30;72.10;;;;;;4172757;28;20087;-61
2021/08/11 08:35:43;;;;;;;6.65;2.63;;;30.30;71.80;;;;;;4173444;28;20029;-62
2021/08/11 08:37:44;;;;;;;5.47;2.30;;;30.40;72.00;;;;;;4172304;28;20080;-62
2021/08/11 08:39:46;;;;;;;3.97;2.55;;;30.70;71.80;;;;;;4173145;28;20052;-61
2021/08/11 08:41:49;;;;;;;5.18;2.70;;;30.60;71.70;;;;;;4172518;28;20432;-61
2021/08/11 08:43:50;;;;;;;5.00;2.55;;;30.30;71.90;;;;;;4172959;28;20500;-61
2021/08/11 08:45:52;;;;;;;4.07;2.55;;;30.30;72.20;;;;;;4172401;28;20088;-62
2021/08/11 08:47:54;;;;;;;4.68;2.38;;;30.50;72.10;;;;;;4173094;28;20102;-62
2021/08/11 08:49:56;;;;;;;5.88;2.88;;;30.70;72.10;;;;;;4172542;28;20441;-62
2021/08/11 08:51:58;;;;;;;5.65;2.92;;;30.60;72.30;;;;;;4171968;28;20063;-62
2021/08/11 08:53:59;;;;;;;6.95;2.22;;;30.70;72.40;;;;;;4173141;28;20041;-61
2021/08/11 08:56:00;;;;;;;4.25;3.03;;;30.90;72.50;;;;;;4175637;28;20040;-62
2021/08/11 08:58:03;;;;;;;4.05;2.05;;;31.00;72.10;;;;;;4175462;28;20029;-62
2021/08/11 09:00:08;;;;;;;4.20;2.00;;;30.80;71.80;;;;;;4174564;28;20136;-61
2021/08/11 09:02:13;;;;;;;2.33;1.88;;;30.50;71.00;;;;;;4176355;28;20095;-61
2021/08/11 09:04:14;;;;;;;2.33;1.50;;;30.30;70.90;;;;;;4175340;28;20497;-62
2021/08/11 09:06:16;;;;;;;3.92;1.95;;;30.40;71.40;;;;;;4176598;28;20457;-62
2021/08/11 09:08:17;;;;;;;7.72;2.15;;;30.30;70.60;;;;;;4175354;28;20029;-62
2021/08/11 09:10:20;;;;;;;6.38;2.03;;;30.10;70.20;;;;;;4174829;28;20049;-62
2021/08/11 09:12:21;;;;;;;6.60;2.00;;;30.10;70.30;;;;;;4175672;28;20079;-62
2021/08/11 09:14:26;;;;;;;8.35;1.95;;;30.10;69.90;;;;;;4176137;28;20029;-61
2021/08/11 09:16:27;;;;;;;5.65;2.22;;;30.10;71.00;;;;;;4175361;28;20099;-62
2021/08/11 09:18:28;;;;;;;3.47;1.42;;;30.00;70.50;;;;;;4175836;28;20531;-62
2021/08/11 09:20:29;;;;;;;4.20;2.33;;;29.60;70.10;;;;;;4174682;28;20095;-62
2021/08/11 09:22:45;;;;;;;9.18;2.08;;;29.50;70.80;;;;;;4175762;28;20033;-62
2021/08/11 09:24:46;;;;;;;2.13;1.90;;;29.50;71.00;;;;;;4175463;28;20465;-61
2021/08/11 09:26:47;;;;;;;2.72;1.88;;;29.60;71.30;;;;;;4175744;28;20434;-62
2021/08/11 09:28:48;;;;;;;5.68;2.30;;;29.80;71.30;;;;;;4175386;28;20581;-62
2021/08/11 09:30:50;;;;;;;2.70;1.83;;;29.90;71.50;;;;;;4175220;28;20053;-61
2021/08/11 09:32:54;;;;;;;4.88;1.85;;;30.10;71.50;;;;;;4175737;28;20091;-62
2021/08/11 09:34:56;;;;;;;5.07;2.13;;;30.20;70.50;;;;;;4174522;28;20863;-62
2021/08/11 09:36:59;;;;;;;3.53;1.90;;;30.30;70.00;;;;;;4176098;28;20130;-61
2021/08/11 09:39:02;;;;;;;3.80;1.80;;;30.50;69.10;;;;;;4174511;28;20680;-61
2021/08/11 09:41:07;;;;;;;5.38;2.13;;;30.50;68.90;;;;;;4175920;28;20071;-62
2021/08/11 09:43:15;;;;;;;4.18;1.77;;;30.30;69.30;;;;;;4174594;28;20041;-62
2021/08/11 09:45:16;;;;;;;2.00;1.80;;;30.50;69.50;;;;;;4176116;28;20091;-62
2021/08/11 09:47:17;;;;;;;3.10;1.70;;;30.70;69.60;;;;;;4173952;28;20037;-61
2021/08/11 09:49:21;;;;;;;3.20;1.70;;;30.60;69.60;;;;;;4174156;28;20099;-61
2021/08/11 09:51:22;;;;;;;1.92;1.58;;;30.50;69.90;;;;;;4175127;28;20029;-63
2021/08/11 09:53:25;;;;;;;1.85;1.45;;;30.50;69.90;;;;;;4175834;28;20055;-62
2021/08/11 09:55:27;;;;;;;1.77;1.60;;;30.50;69.60;;;;;;4174589;28;20095;-61
2021/08/11 09:57:29;;;;;;;1.95;1.70;;;30.60;69.40;;;;;;4175784;28;20091;-61
2021/08/11 09:59:30;;;;;;;4.55;2.08;;;30.60;69.30;;;;;;4174930;28;20041;-62
2021/08/11 10:01:33;;;;;;;3.60;1.88;;;30.50;69.20;;;;;;4175253;28;20044;-61
2021/08/11 10:03:34;;;;;;;3.10;1.80;;;30.40;69.50;;;;;;4174812;28;20481;-62
2021/08/11 10:05:37;;;;;;;3.53;1.55;;;30.30;69.70;;;;;;4174375;28;20037;-61
2021/08/11 10:07:39;;;;;;;4.82;1.30;;;30.30;69.80;;;;;;4174877;28;20037;-61
2021/08/11 10:09:40;;;;;;;3.90;1.75;;;30.40;69.70;;;;;;4174775;28;20144;-62
2021/08/11 10:11:47;;;;;;;3.33;1.75;;;30.40;69.50;;;;;;4174960;28;20063;-61
2021/08/11 10:13:49;;;;;;;2.95;1.50;;;30.40;70.50;;;;;;4174537;28;20094;-62
2021/08/11 10:15:50;;;;;;;4.68;2.05;;;30.40;69.80;;;;;;4175473;28;20028;-62
2021/08/11 10:17:52;;;;;;;8.18;2.33;;;30.50;69.70;;;;;;4173984;28;20028;-61
2021/08/11 10:19:53;;;;;;;6.85;1.77;;;30.40;69.10;;;;;;4175717;28;20024;-63
2021/08/11 10:21:59;;;;;;;3.70;1.70;;;30.20;68.70;;;;;;4174126;28;20048;-62
2021/08/11 10:24:03;;;;;;;5.45;1.85;;;29.90;68.30;;;;;;4175163;28;20035;-62
2021/08/11 10:26:04;;;;;;;4.82;2.40;;;29.80;68.80;;;;;;4174222;28;20025;-61
2021/08/11 10:28:05;;;;;;;1.88;1.73;;;29.90;69.30;;;;;;4175160;28;20025;-61
2021/08/11 10:30:08;;;;;;;2.83;1.42;;;30.00;69.60;;;;;;4173792;28;20084;-62
2021/08/11 10:32:09;;;;;;;1.88;1.52;;;30.20;69.00;;;;;;4175345;28;20049;-62
2021/08/11 10:34:12;;;;;;;3.00;1.65;;;30.40;69.30;;;;;;4173359;28;20485;-62
2021/08/11 10:36:15;;;;;;;7.93;2.35;;;30.60;69.50;;;;;;4174689;28;20028;-62